Time;durP1;ratioP1;P1;durP2;ratioP2;P2;SDS_P1;SDS_P2;PMS_P1;PMS_P2;Temp;Humidity;BMP_temperature;BMP_pressure;BME280_temperature;BME280_humidity;BME280_pressure;Samples;Min_cycle;Max_cycle;Signal;HPM_P1;HPM_P2
2023/09/27 00:00:45;;;;;;;19.13;8.95;;;;;;;9.08;67.79;101491.00;4814295;29;20543;-70
2023/09/27 00:03:11;;;;;;;22.63;10.68;;;;;;;9.10;67.86;101496.25;4829882;29;20055;-69
2023/09/27 00:05:37;;;;;;;23.48;10.45;;;;;;;8.99;67.98;101476.06;4820333;29;20042;-72
2023/09/27 00:08:04;;;;;;;22.33;11.80;;;;;;;9.16;67.78;101498.97;4816760;29;20422;-71
2023/09/27 00:10:30;;;;;;;20.45;10.50;;;;;;;9.03;68.19;101467.53;4814464;29;20086;-72
2023/09/27 00:12:56;;;;;;;31.92;11.93;;;;;;;9.15;67.99;101490.31;4818759;29;20050;-71
2023/09/27 00:15:23;;;;;;;25.30;11.80;;;;;;;9.10;68.04;101478.06;4816516;29;20050;-70
2023/09/27 00:17:49;;;;;;;21.80;11.02;;;;;;;9.18;68.37;101494.69;4805821;29;20138;-71
2023/09/27 00:20:19;;;;;;;20.60;10.80;;;;;;;9.12;68.20;101484.19;4821465;29;20137;-70
2023/09/27 00:22:46;;;;;;;22.42;11.25;;;;;;;9.16;68.28;101491.19;4820197;29;20379;-71
2023/09/27 00:25:14;;;;;;;25.33;10.52;;;;;;;9.12;68.16;101491.97;4802792;29;20066;-70
2023/09/27 00:27:41;;;;;;;21.90;10.63;;;;;;;9.13;68.17;101492.00;4817747;29;20050;-71
2023/09/27 00:30:13;;;;;;;24.20;10.38;;;;;;;8.98;68.38;101463.94;4835292;29;20038;-71
2023/09/27 00:32:40;;;;;;;21.45;10.27;;;;;;;9.13;68.52;101488.53;4807115;29;20060;-71
2023/09/27 00:35:12;;;;;;;24.98;10.20;;;;;;;9.06;68.52;101492.66;4817846;29;20115;-70
2023/09/27 00:37:38;;;;;;;22.42;10.98;;;;;;;9.03;68.32;101490.91;4819735;29;20042;-72
2023/09/27 00:40:10;;;;;;;21.77;9.73;;;;;;;8.86;68.11;101469.69;4803681;29;20049;-71
2023/09/27 00:42:40;;;;;;;18.67;9.10;;;;;;;8.94;68.30;101482.00;4837026;29;20053;-72
2023/09/27 00:45:07;;;;;;;19.17;9.95;;;;;;;8.90;68.20;101473.28;4821435;29;20148;-71
2023/09/27 00:47:34;;;;;;;15.73;8.93;;;;;;;8.60;67.91;101435.31;4816926;29;20145;-71
2023/09/27 00:50:02;;;;;;;15.80;8.60;;;;;;;8.92;68.23;101487.16;4807443;29;20081;-70
2023/09/27 00:52:31;;;;;;;22.65;10.23;;;;;;;8.71;67.64;101461.53;4803883;29;20043;-69
2023/09/27 00:54:57;;;;;;;22.20;10.77;;;;;;;8.67;68.19;101465.78;4805200;29;20053;-70
2023/09/27 00:57:24;;;;;;;14.38;7.93;;;;;;;8.76;68.32;101469.44;4802248;29;20045;-71
2023/09/27 00:59:52;;;;;;;15.27;8.98;;;;;;;8.80;68.05;101490.34;4819167;29;20077;-70
2023/09/27 01:02:18;;;;;;;16.58;8.23;;;;;;;8.73;68.69;101480.63;4805638;29;20051;-70
2023/09/27 01:04:45;;;;;;;19.90;10.30;;;;;;;8.66;68.31;101471.81;4818997;29;20119;-71
2023/09/27 01:07:11;;;;;;;20.27;9.13;;;;;;;8.76;68.47;101493.69;4817768;29;20046;-70
2023/09/27 01:09:38;;;;;;;14.82;8.48;;;;;;;8.78;68.51;101492.00;4818739;29;20060;-71
2023/09/27 01:12:04;;;;;;;16.50;8.32;;;;;;;8.65;68.34;101467.47;4818979;29;20046;-71
2023/09/27 01:14:31;;;;;;;16.13;8.68;;;;;;;8.80;68.63;101498.13;4816521;29;20043;-70
2023/09/27 01:17:09;;;;;;;21.92;9.48;;;;;;;8.57;68.68;101459.47;4805349;29;20498;-72
2023/09/27 01:19:37;;;;;;;22.50;9.02;;;;;;;8.65;68.35;101463.97;4833199;29;20046;-71
2023/09/27 01:22:03;;;;;;;16.42;9.18;;;;;;;8.80;68.31;101492.94;4815336;29;20525;-71
2023/09/27 01:24:30;;;;;;;16.88;9.32;;;;;;;8.63;68.73;101463.94;4821912;29;20407;-71
2023/09/27 01:26:59;;;;;;;21.05;8.77;;;;;;;8.74;68.33;101497.94;4819221;29;20257;-70
2023/09/27 01:29:25;;;;;;;18.05;8.57;;;;;;;8.43;68.37;101440.03;4801930;29;20098;-73
2023/09/27 01:31:51;;;;;;;19.27;9.80;;;;;;;8.43;68.02;101458.19;4817919;29;20102;-71
2023/09/27 01:34:17;;;;;;;19.60;8.88;;;;;;;8.56;68.57;101480.19;4819697;29;20046;-71
2023/09/27 01:36:43;;;;;;;17.50;9.93;;;;;;;8.65;68.68;101488.22;4818719;29;20076;-71
2023/09/27 01:39:09;;;;;;;17.42;8.98;;;;;;;8.51;68.70;101464.50;4819086;29;20047;-70
2023/09/27 01:41:35;;;;;;;16.90;9.55;;;;;;;8.56;68.77;101469.81;4791821;29;20042;-70
2023/09/27 01:44:01;;;;;;;16.60;8.88;;;;;;;8.30;68.67;101438.81;4804165;29;20409;-71
2023/09/27 01:46:27;;;;;;;17.25;8.80;;;;;;;8.62;68.66;101498.50;4818431;29;20049;-70
2023/09/27 01:48:53;;;;;;;15.55;9.48;;;;;;;8.47;69.00;101474.72;4820160;29;20582;-70
2023/09/27 01:51:19;;;;;;;19.00;8.10;;;;;;;8.55;68.89;101476.72;4818448;29;20540;-70
2023/09/27 01:53:45;;;;;;;19.10;8.88;;;;;;;8.64;68.82;101486.47;4818220;29;20434;-70
2023/09/27 01:56:11;;;;;;;16.67;8.60;;;;;;;8.64;68.92;101485.56;4818292;29;20536;-71
2023/09/27 01:58:37;;;;;;;19.10;8.70;;;;;;;8.57;68.73;101475.03;4821058;29;20043;-72
2023/09/27 02:01:03;;;;;;;17.30;8.88;;;;;;;8.57;68.35;101489.72;4831267;29;20054;-71
2023/09/27 02:03:29;;;;;;;16.42;9.52;;;;;;;8.45;68.69;101477.28;4817278;29;20148;-73
2023/09/27 02:05:57;;;;;;;20.73;8.52;;;;;;;8.53;68.87;101491.38;4801439;29;20050;-72
2023/09/27 02:08:25;;;;;;;19.92;8.65;;;;;;;8.52;68.76;101493.91;4816946;29;20043;-73
2023/09/27 02:10:52;;;;;;;16.80;8.88;;;;;;;8.48;68.70;101485.16;4811617;29;20068;-71
2023/09/27 02:13:19;;;;;;;15.77;8.55;;;;;;;8.57;68.53;101489.72;4817287;29;20478;-71
2023/09/27 02:15:46;;;;;;;14.80;9.30;;;;;;;8.59;68.75;101488.06;4820489;29;20042;-71
2023/09/27 02:18:13;;;;;;;19.00;8.68;;;;;;;8.56;68.99;101488.84;4831952;29;20403;-70
2023/09/27 02:20:40;;;;;;;17.35;10.52;;;;;;;8.44;68.32;101491.97;4817367;29;20055;-71
2023/09/27 02:23:27;;;;;;;19.50;9.82;;;;;;;8.47;68.87;101492.91;4807648;29;20126;-71
2023/09/27 02:25:58;;;;;;;22.50;9.88;;;;;;;8.49;68.75;101493.84;4807756;29;20517;-71
2023/09/27 02:28:24;;;;;;;17.83;10.38;;;;;;;8.49;69.15;101489.53;4802352;29;20062;-71
2023/09/27 02:30:51;;;;;;;19.33;10.38;;;;;;;8.57;69.20;101484.53;4817373;29;20046;-70
2023/09/27 02:33:18;;;;;;;18.45;8.88;;;;;;;8.60;69.32;101476.84;4818626;29;20057;-69
2023/09/27 02:35:44;;;;;;;18.55;9.40;;;;;;;8.56;69.39;101462.00;4818165;29;20046;-71
2023/09/27 02:38:11;;;;;;;17.77;9.77;;;;;;;8.56;69.44;101452.53;4828890;29;20054;-71
2023/09/27 02:40:38;;;;;;;17.45;9.10;;;;;;;8.52;69.36;101444.59;4817573;29;20421;-70
2023/09/27 02:43:05;;;;;;;16.98;10.30;;;;;;;8.66;68.97;101455.34;4815938;29;20053;-70
2023/09/27 02:45:31;;;;;;;19.60;9.38;;;;;;;8.66;69.23;101447.56;4818593;29;20050;-71
2023/09/27 02:47:58;;;;;;;14.23;9.77;;;;;;;8.45;68.62;101417.59;4817802;29;20214;-71
2023/09/27 02:50:25;;;;;;;17.25;9.75;;;;;;;8.67;69.22;101442.44;4814545;29;20042;-70
2023/09/27 02:52:52;;;;;;;23.90;10.18;;;;;;;8.68;69.14;101439.00;4819525;29;20051;-72
2023/09/27 02:55:18;;;;;;;20.50;9.35;;;;;;;8.81;69.23;101457.44;4788699;29;20522;-72
2023/09/27 02:57:50;;;;;;;17.90;9.45;;;;;;;8.85;68.95;101469.66;4805183;29;20050;-71
2023/09/27 03:00:20;;;;;;;19.15;10.65;;;;;;;8.83;69.28;101463.56;4830248;29;20102;-73
2023/09/27 03:02:46;;;;;;;19.60;9.90;;;;;;;8.74;69.03;101446.91;4815666;29;20517;-74
2023/09/27 03:05:13;;;;;;;18.45;9.75;;;;;;;8.85;69.30;101464.47;4818030;29;20047;-72
2023/09/27 03:07:40;;;;;;;19.00;9.60;;;;;;;8.80;69.31;101466.06;4821128;29;20054;-73
2023/09/27 03:10:10;;;;;;;20.85;10.52;;;;;;;8.54;69.08;101430.84;4794562;29;20038;-72
2023/09/27 03:12:39;;;;;;;19.42;9.10;;;;;;;8.76;69.29;101464.25;4818441;29;20128;-73
2023/09/27 03:15:10;;;;;;;15.27;9.82;;;;;;;8.55;69.24;101429.13;4793542;29;20099;-71
2023/09/27 03:17:38;;;;;;;17.13;9.70;;;;;;;8.47;69.25;101431.50;4820176;29;20052;-71
2023/09/27 03:20:16;;;;;;;17.73;10.52;;;;;;;8.64;68.90;101444.94;4804382;29;20095;-72
2023/09/27 03:22:42;;;;;;;21.00;10.43;;;;;;;8.64;69.21;101451.81;4831082;29;20181;-71
2023/09/27 03:25:09;;;;;;;17.10;11.60;;;;;;;8.68;69.10;101456.25;4806585;29;20042;-71
2023/09/27 03:27:36;;;;;;;16.23;9.98;;;;;;;8.72;69.02;101464.16;4813008;29;20046;-71
2023/09/27 03:30:05;;;;;;;23.52;10.18;;;;;;;8.73;69.10;101470.25;4803405;29;20207;-71
2023/09/27 03:32:35;;;;;;;19.98;10.00;;;;;;;8.69;69.16;101458.91;4804134;29;20054;-71
2023/09/27 03:35:01;;;;;;;16.83;9.68;;;;;;;8.63;69.10;101450.06;4815690;29;21451;-71
2023/09/27 03:37:32;;;;;;;24.25;10.90;;;;;;;8.78;69.29;101472.94;4816408;29;20042;-72
2023/09/27 03:39:59;;;;;;;20.90;10.45;;;;;;;8.79;69.17;101479.91;4802559;29;20142;-71
2023/09/27 03:42:26;;;;;;;22.05;10.38;;;;;;;8.84;69.12;101473.09;4818153;29;20061;-72
2023/09/27 03:44:54;;;;;;;21.25;10.10;;;;;;;8.84;69.24;101466.19;4818151;29;20061;-71
2023/09/27 03:47:22;;;;;;;18.38;9.55;;;;;;;8.82;69.25;101449.72;4806350;29;20046;-73
2023/09/27 03:49:48;;;;;;;17.20;9.82;;;;;;;8.94;69.18;101459.50;4815599;29;20545;-72
2023/09/27 03:52:14;;;;;;;18.60;9.57;;;;;;;8.86;68.86;101427.31;4817089;29;20050;-73
2023/09/27 03:54:40;;;;;;;15.50;9.63;;;;;;;9.17;69.31;101475.66;4815988;29;20058;-72
2023/09/27 03:57:06;;;;;;;18.70;10.05;;;;;;;9.15;69.26;101459.16;4802334;29;20121;-76
2023/09/27 03:59:33;;;;;;;15.15;9.65;;;;;;;9.13;68.89;101444.38;4815791;29;20178;-72
2023/09/27 04:01:59;;;;;;;23.70;10.15;;;;;;;9.27;68.81;101452.50;4814724;29;20046;-75
2023/09/27 04:04:26;;;;;;;18.42;10.23;;;;;;;9.49;68.89;101474.63;4803431;29;20035;-75
2023/09/27 04:06:52;;;;;;;20.60;10.13;;;;;;;9.44;68.62;101451.16;4817155;29;20137;-75
2023/09/27 04:09:18;;;;;;;26.98;10.68;;;;;;;9.56;68.86;101450.53;4821112;29;20458;-76
2023/09/27 04:11:44;;;;;;;19.13;9.95;;;;;;;9.71;68.68;101433.50;4817029;29;20059;-78
2023/09/27 04:14:11;;;;;;;25.02;11.43;;;;;;;10.10;68.61;101453.34;4826063;29;20129;-83
2023/09/27 04:16:38;;;;;;;20.45;9.50;;;;;;;10.51;68.81;101455.00;4834738;29;20058;-77
2023/09/27 04:19:04;;;;;;;20.65;9.27;;;;;;;11.08;68.24;101463.78;4821870;29;20038;-78
2023/09/27 04:21:30;;;;;;;20.50;9.45;;;;;;;11.21;67.63;101401.41;4817474;29;20046;-77
2023/09/27 04:23:57;;;;;;;14.30;8.88;;;;;;;11.85;66.93;101455.25;4821759;29;20179;-75
2023/09/27 04:26:24;;;;;;;15.20;9.45;;;;;;;12.17;66.46;101420.88;4818780;29;20056;-75
2023/09/27 04:28:50;;;;;;;16.48;8.70;;;;;;;12.47;65.97;101428.13;4820784;29;20414;-76
2023/09/27 04:31:17;;;;;;;14.52;8.18;;;;;;;12.81;65.35;101446.69;4817287;29;20085;-78
2023/09/27 04:33:44;;;;;;;19.23;9.27;;;;;;;13.07;64.99;101422.47;4818755;29;20042;-76
2023/09/27 04:36:20;;;;;;;19.48;8.57;;;;;;;14.10;64.46;101441.31;4817764;29;20411;-77
2023/09/27 04:38:49;;;;;;;22.30;9.05;;;;;;;15.46;63.50;101422.06;4822048;29;20038;-79
2023/09/27 04:41:17;;;;;;;17.02;8.80;;;;;;;16.81;61.50;101416.00;4832542;29;20050;-77
2023/09/27 04:43:47;;;;;;;12.27;8.13;;;;;;;17.83;58.80;101375.44;4818255;29;20166;-78
2023/09/27 04:46:18;;;;;;;20.85;8.70;;;;;;;19.31;56.61;101433.69;4803488;29;20090;-77
2023/09/27 04:48:45;;;;;;;12.57;7.88;;;;;;;20.40;53.77;101427.81;4814883;29;20043;-77
2023/09/27 04:51:11;;;;;;;13.05;8.32;;;;;;;21.27;51.34;101417.69;4815457;29;20043;-77
2023/09/27 04:53:37;;;;;;;15.10;8.20;;;;;;;21.51;48.67;101346.41;4812330;29;20126;-76
2023/09/27 04:56:05;;;;;;;21.75;9.27;;;;;;;22.58;46.77;101425.22;4817114;29;20078;-76
2023/09/27 04:58:31;;;;;;;12.20;8.18;;;;;;;23.21;44.72;101402.72;4800774;29;20046;-75
2023/09/27 05:00:58;;;;;;;16.60;8.40;;;;;;;24.26;43.26;101417.34;4814516;29;20499;-76
2023/09/27 05:03:26;;;;;;;16.02;8.65;;;;;;;24.94;41.87;101382.56;4805817;29;20064;-84
2023/09/27 05:05:52;;;;;;;12.80;8.98;;;;;;;25.88;39.40;101408.50;4825703;29;20046;-83
2023/09/27 05:08:18;;;;;;;17.90;8.90;;;;;;;26.54;38.78;101385.72;4825379;29;20066;-79
2023/09/27 05:10:44;;;;;;;24.70;8.63;;;;;;;27.26;36.58;101376.69;4822932;29;20050;-77
2023/09/27 05:13:10;;;;;;;24.52;8.25;;;;;;;28.01;34.79;101371.66;4825552;29;20042;-80
2023/09/27 05:15:36;;;;;;;19.27;8.65;;;;;;;28.68;33.38;101405.22;4809281;29;20057;-81
2023/09/27 05:18:02;;;;;;;17.80;8.63;;;;;;;28.86;32.80;101357.75;4822844;29;20039;-82
2023/09/27 05:20:28;;;;;;;18.25;9.40;;;;;;;29.59;31.83;101383.56;4823552;29;20050;-74
2023/09/27 05:22:57;;;;;;;16.40;8.90;;;;;;;30.36;30.80;101398.28;4821946;29;20073;-78
2023/09/27 05:25:23;;;;;;;20.80;9.82;;;;;;;30.97;29.47;101402.22;4806200;29;20050;-78
2023/09/27 05:27:49;;;;;;;19.27;8.43;;;;;;;31.41;28.15;101398.22;4820413;29;20045;-76
2023/09/27 05:30:16;;;;;;;18.27;8.80;;;;;;;32.12;27.87;101414.56;4833531;29;20050;-79
2023/09/27 05:32:43;;;;;;;18.67;8.50;;;;;;;32.61;26.92;101403.75;4836321;29;20042;-78
2023/09/27 05:35:09;;;;;;;20.08;8.70;;;;;;;33.22;26.25;101405.28;4819641;29;20043;-77
2023/09/27 05:37:35;;;;;;;14.27;9.00;;;;;;;33.85;25.37;101401.19;4816843;29;20118;-79
2023/09/27 05:40:04;;;;;;;12.68;8.55;;;;;;;34.39;24.31;101380.47;4819064;29;20042;-78
2023/09/27 05:42:30;;;;;;;14.60;8.25;;;;;;;35.16;23.91;101407.28;4806168;29;20054;-79
2023/09/27 05:44:56;;;;;;;15.90;8.32;;;;;;;35.57;23.59;101390.03;4828238;29;20114;-79
2023/09/27 05:47:24;;;;;;;13.80;8.18;;;;;;;35.97;22.26;101390.13;4825525;29;20109;-81
2023/09/27 05:49:53;;;;;;;14.95;7.82;;;;;;;36.62;21.78;101395.78;4824935;29;20133;-79
2023/09/27 05:52:19;;;;;;;17.70;9.02;;;;;;;37.15;21.51;101389.91;4814395;29;20117;-78
2023/09/27 05:54:46;;;;;;;15.75;8.88;;;;;;;37.64;20.65;101395.06;4821377;29;20050;-77
2023/09/27 05:57:12;;;;;;;14.35;8.68;;;;;;;37.89;19.95;101370.88;4818733;29;20051;-78
2023/09/27 05:59:41;;;;;;;17.92;8.85;;;;;;;38.25;19.59;101395.31;4816628;29;20053;-79
2023/09/27 06:02:07;;;;;;;12.38;8.13;;;;;;;38.42;18.82;101401.75;4818226;29;20055;-78
2023/09/27 06:04:33;;;;;;;17.30;8.75;;;;;;;38.75;18.75;101380.22;4822811;29;20137;-76
2023/09/27 06:06:59;;;;;;;14.13;8.88;;;;;;;39.19;17.77;101403.72;4820820;29;20399;-75
2023/09/27 06:09:28;;;;;;;15.32;8.52;;;;;;;39.64;17.53;101407.13;4811943;29;20038;-80
2023/09/27 06:11:54;;;;;;;17.52;9.52;;;;;;;40.02;17.34;101398.53;4817913;29;20116;-79
2023/09/27 06:14:21;;;;;;;17.65;9.25;;;;;;;40.55;16.31;101388.13;4820828;29;20526;-82
2023/09/27 06:16:47;;;;;;;15.68;8.93;;;;;;;40.85;16.59;101382.94;4819584;29;20049;-80
2023/09/27 06:19:16;;;;;;;14.68;8.25;;;;;;;41.14;15.72;101380.66;4793192;29;20046;-79
2023/09/27 06:21:43;;;;;;;15.40;8.10;;;;;;;41.60;15.98;101382.63;4804921;29;20121;-78
2023/09/27 06:24:09;;;;;;;16.88;7.82;;;;;;;42.20;14.84;101391.91;4820659;29;20046;-79
2023/09/27 06:26:35;;;;;;;15.35;8.07;;;;;;;42.14;14.71;101376.22;4819868;29;20054;-80
2023/09/27 06:29:01;;;;;;;16.27;9.00;;;;;;;42.48;14.41;101398.66;4818379;29;20034;-78
2023/09/27 06:31:29;;;;;;;19.90;8.27;;;;;;;42.65;14.48;101383.75;4807605;29;20050;-81
2023/09/27 06:33:55;;;;;;;13.38;8.13;;;;;;;43.13;14.10;101394.34;4820420;29;20498;-77
2023/09/27 06:36:27;;;;;;;16.33;8.40;;;;;;;43.26;13.95;101385.44;4820669;29;20082;-82
2023/09/27 06:38:53;;;;;;;16.05;8.88;;;;;;;43.46;13.60;101376.63;4822134;29;20039;-78
2023/09/27 06:41:21;;;;;;;16.35;8.38;;;;;;;43.78;13.21;101385.38;4804275;29;20467;-78
2023/09/27 06:43:48;;;;;;;19.67;8.60;;;;;;;43.85;12.64;101367.13;4819821;29;20080;-79
2023/09/27 06:46:17;;;;;;;17.27;9.48;;;;;;;44.35;12.58;101358.88;4818308;29;20478;-81
2023/09/27 06:48:46;;;;;;;19.85;8.80;;;;;;;45.21;12.28;101381.50;4821998;29;20049;-82
2023/09/27 06:51:13;;;;;;;15.82;9.05;;;;;;;45.87;11.81;101398.38;4819705;29;20050;-83
2023/09/27 06:53:40;;;;;;;15.63;8.95;;;;;;;46.25;11.84;101375.72;4820171;29;20078;-77
2023/09/27 06:56:06;;;;;;;21.52;8.90;;;;;;;46.46;11.42;101393.91;4805459;29;20046;-77
2023/09/27 06:58:32;;;;;;;14.82;8.73;;;;;;;46.55;11.02;101369.78;4819503;29;20456;-77
2023/09/27 07:00:59;;;;;;;14.15;7.80;;;;;;;46.79;11.10;101385.78;4804780;29;20456;-78
2023/09/27 07:03:25;;;;;;;15.02;8.02;;;;;;;47.23;11.16;101375.88;4802584;29;20517;-79
2023/09/27 07:05:51;;;;;;;16.25;8.52;;;;;;;47.87;10.48;101381.38;4816585;29;20137;-79
2023/09/27 07:08:17;;;;;;;12.63;7.75;;;;;;;47.95;10.41;101372.88;4818077;29;20133;-77
2023/09/27 07:10:44;;;;;;;10.85;7.50;;;;;;;48.34;10.16;101382.91;4816043;29;20078;-80
2023/09/27 07:13:10;;;;;;;17.30;7.65;;;;;;;48.47;10.08;101379.97;4818698;29;20038;-79
2023/09/27 07:15:37;;;;;;;9.85;7.18;;;;;;;48.45;9.84;101389.56;4802403;29;20071;-77
2023/09/27 07:18:04;;;;;;;13.90;7.95;;;;;;;48.36;9.80;101381.59;4815076;29;20051;-74
2023/09/27 07:20:34;;;;;;;10.68;7.35;;;;;;;48.52;9.87;101382.91;4820808;29;20075;-79
2023/09/27 07:23:04;;;;;;;12.40;7.85;;;;;;;48.77;9.75;101395.81;4836702;29;20186;-83
2023/09/27 07:25:34;;;;;;;9.90;7.30;;;;;;;49.18;9.41;101395.31;4819759;29;20042;-79
2023/09/27 07:28:06;;;;;;;8.55;7.28;;;;;;;49.42;9.62;101390.75;4834559;29;20038;-79
2023/09/27 07:30:37;;;;;;;11.27;7.30;;;;;;;49.32;9.32;101363.66;4817583;29;20039;-82
2023/09/27 07:33:09;;;;;;;9.48;7.70;;;;;;;48.98;9.13;101385.34;4808742;29;20046;-79
2023/09/27 07:35:38;;;;;;;10.73;7.72;;;;;;;48.06;9.72;101398.00;4818625;29;20132;-81
2023/09/27 07:38:07;;;;;;;12.65;7.75;;;;;;;47.17;10.23;101376.72;4791454;29;20137;-81
2023/09/27 07:40:33;;;;;;;11.75;7.72;;;;;;;46.81;10.19;101375.44;4822105;29;20034;-81
2023/09/27 07:42:59;;;;;;;9.70;7.43;;;;;;;46.38;10.07;101374.00;4817878;29;20049;-80
2023/09/27 07:45:30;;;;;;;12.38;6.90;;;;;;;45.92;10.02;101370.25;4818718;29;20075;-80
2023/09/27 07:47:56;;;;;;;7.22;6.55;;;;;;;45.32;10.72;101382.81;4799671;29;20047;-77
2023/09/27 07:50:33;;;;;;;9.05;6.63;;;;;;;45.55;10.75;101376.97;4817366;29;20391;-78
2023/09/27 07:53:03;;;;;;;8.88;5.63;;;;;;;45.21;10.77;101367.75;4820432;29;20049;-77
2023/09/27 07:55:32;;;;;;;6.47;5.25;;;;;;;44.74;10.55;101381.28;4820990;29;20053;-79
2023/09/27 07:57:59;;;;;;;6.28;5.25;;;;;;;44.89;11.03;101383.91;4814404;29;20043;-76
2023/09/27 08:00:30;;;;;;;7.15;5.18;;;;;;;46.17;10.54;101389.69;4816868;29;20070;-79
2023/09/27 08:03:02;;;;;;;8.02;5.47;;;;;;;47.56;9.89;101390.50;4805892;29;20043;-78
2023/09/27 08:05:28;;;;;;;10.02;6.68;;;;;;;48.32;9.51;101365.75;4815620;29;20072;-77
2023/09/27 08:07:54;;;;;;;7.50;5.78;;;;;;;48.89;9.09;101386.72;4804002;29;20062;-77
2023/09/27 08:10:22;;;;;;;7.95;5.20;;;;;;;49.00;8.76;101384.03;4799942;29;20061;-81
2023/09/27 08:12:48;;;;;;;10.35;7.95;;;;;;;48.37;9.20;101376.94;4815604;29;20242;-76
2023/09/27 08:15:18;;;;;;;7.97;6.10;;;;;;;48.78;9.17;101383.69;4814669;29;20038;-79
2023/09/27 08:17:45;;;;;;;14.13;9.50;;;;;;;49.48;8.91;101383.41;4798494;29;20484;-77
2023/09/27 08:20:14;;;;;;;7.68;6.60;;;;;;;49.86;8.70;101362.81;4818916;29;20046;-78
2023/09/27 08:22:40;;;;;;;6.85;6.07;;;;;;;49.78;8.18;101388.00;4804000;29;20038;-78
2023/09/27 08:25:14;;;;;;;10.88;6.55;;;;;;;48.92;8.47;101377.97;4818689;29;20080;-78
2023/09/27 08:27:42;;;;;;;4.93;4.18;;;;;;;48.06;8.92;101359.38;4830914;29;20042;-80
2023/09/27 08:30:09;;;;;;;5.25;4.20;;;;;;;48.32;8.99;101347.28;4822088;29;20057;-78
2023/09/27 08:32:35;;;;;;;5.85;4.18;;;;;;;49.17;8.51;101350.28;4819810;29;20546;-80
2023/09/27 08:35:04;;;;;;;4.85;4.45;;;;;;;49.48;8.37;101333.69;4806447;29;20557;-80
2023/09/27 08:37:50;;;;;;;9.53;6.07;;;;;;;49.76;8.41;101330.22;4820795;29;20397;-78
2023/09/27 08:40:16;;;;;;;7.95;4.10;;;;;;;50.31;8.00;101362.22;4821470;29;20505;-78
2023/09/27 08:42:43;;;;;;;5.85;3.88;;;;;;;50.69;8.03;101348.06;4820182;29;20042;-77
2023/09/27 08:45:13;;;;;;;5.85;4.43;;;;;;;50.03;7.74;101361.00;4820890;29;20061;-77
2023/09/27 08:47:44;;;;;;;5.18;4.53;;;;;;;49.25;8.17;101360.97;4800638;29;20047;-75
2023/09/27 08:50:14;;;;;;;7.72;4.03;;;;;;;49.25;8.02;101354.63;4818654;29;20075;-74
2023/09/27 08:52:51;;;;;;;4.75;4.20;;;;;;;49.61;8.18;101350.03;4818687;29;20047;-80
2023/09/27 08:55:19;;;;;;;9.27;4.40;;;;;;;49.55;8.22;101324.19;4839383;29;20145;-77
2023/09/27 08:57:48;;;;;;;6.05;4.68;;;;;;;48.84;8.32;101330.31;4817385;29;20114;-79
2023/09/27 09:00:18;;;;;;;6.68;4.68;;;;;;;47.68;8.81;101349.31;4826667;29;20045;-80
2023/09/27 09:02:52;;;;;;;3.85;3.38;;;;;;;47.90;8.77;101341.47;4807243;29;20061;-77
2023/09/27 09:05:18;;;;;;;8.52;3.78;;;;;;;48.85;8.50;101334.75;4809345;29;20042;-76
2023/09/27 09:07:45;;;;;;;6.45;4.80;;;;;;;49.36;8.11;101348.28;4819312;29;20051;-76
2023/09/27 09:10:16;;;;;;;9.55;3.97;;;;;;;49.31;8.11;101353.69;4805067;29;20419;-77
2023/09/27 09:12:44;;;;;;;6.22;3.75;;;;;;;49.52;7.56;101345.94;4832042;29;20069;-77
2023/09/27 09:15:32;;;;;;;6.45;4.63;;;;;;;48.50;8.42;101340.91;4820360;29;20049;-78
2023/09/27 09:17:59;;;;;;;8.90;4.30;;;;;;;47.97;8.81;101336.78;4802977;29;20099;-77
2023/09/27 09:20:32;;;;;;;5.30;3.65;;;;;;;47.86;8.56;101338.34;4816705;29;20054;-78
2023/09/27 09:23:03;;;;;;;5.35;3.80;;;;;;;47.42;9.31;101337.41;4818507;29;20137;-77
2023/09/27 09:25:29;;;;;;;7.55;3.70;;;;;;;46.87;8.87;101333.28;4821283;29;20128;-77
2023/09/27 09:28:24;;;;;;;4.70;3.75;;;;;;;46.37;9.71;101318.16;4816305;29;20118;-77
2023/09/27 09:30:51;;;;;;;7.28;3.63;;;;;;;46.12;9.45;101327.09;4819007;29;20046;-78
2023/09/27 09:33:22;;;;;;;5.30;3.72;;;;;;;46.44;9.45;101319.03;4817177;29;20054;-75
2023/09/27 09:35:50;;;;;;;4.85;4.28;;;;;;;46.66;9.60;101301.38;4818995;29;20119;-76
2023/09/27 09:38:31;;;;;;;6.47;3.93;;;;;;;46.72;9.28;101315.09;4821588;29;20042;-77
2023/09/27 09:41:00;;;;;;;5.90;5.13;;;;;;;47.13;9.42;101317.66;4821092;29;20050;-75
2023/09/27 09:43:37;;;;;;;7.75;5.07;;;;;;;47.16;9.21;101331.84;4819520;29;20678;-76
2023/09/27 09:46:08;;;;;;;10.07;6.32;;;;;;;46.34;9.53;101307.59;4819527;29;21542;-79
2023/09/27 09:48:35;;;;;;;10.23;4.50;;;;;;;46.23;10.13;101311.84;4818351;29;20510;-77
2023/09/27 09:51:06;;;;;;;9.68;5.25;;;;;;;46.01;10.23;101308.50;4803302;29;20113;-77
2023/09/27 09:53:40;;;;;;;5.80;4.22;;;;;;;45.92;10.19;101320.75;4817681;29;20082;-77
2023/09/27 09:56:09;;;;;;;4.65;2.85;;;;;;;45.18;10.28;101304.19;4816960;29;20050;-79
2023/09/27 09:58:42;;;;;;;5.70;2.85;;;;;;;45.10;10.67;101311.56;4817979;29;20672;-77
2023/09/27 10:01:12;;;;;;;7.03;4.05;;;;;;;44.83;10.18;101307.84;4818120;29;20066;-75
2023/09/27 10:03:47;;;;;;;5.88;3.95;;;;;;;42.70;11.55;101295.69;4816703;29;20054;-77
2023/09/27 10:06:19;;;;;;;11.70;3.53;;;;;;;40.28;12.53;101281.19;4819074;29;20074;-76
2023/09/27 10:08:45;;;;;;;5.45;3.60;;;;;;;38.77;13.28;101312.94;4818411;29;20042;-77
2023/09/27 10:11:12;;;;;;;5.05;3.22;;;;;;;37.19;14.70;101302.63;4816171;29;20039;-76
2023/09/27 10:13:40;;;;;;;8.50;3.60;;;;;;;35.97;15.81;101285.38;4815812;29;20058;-75
2023/09/27 10:16:08;;;;;;;4.32;3.15;;;;;;;34.90;16.66;101281.47;4818138;29;20065;-78
2023/09/27 10:18:43;;;;;;;6.20;4.00;;;;;;;34.26;17.59;101309.59;4817515;29;20073;-76
2023/09/27 10:21:12;;;;;;;4.85;3.30;;;;;;;33.46;18.29;101280.25;4806213;29;20042;-77
2023/09/27 10:23:45;;;;;;;6.47;3.67;;;;;;;32.88;18.44;101298.34;4816758;29;20050;-77
2023/09/27 10:26:27;;;;;;;6.30;3.60;;;;;;;32.29;19.07;101302.09;4831826;29;20047;-76
2023/09/27 10:29:16;;;;;;;6.55;3.05;;;;;;;31.65;19.86;101306.81;4817579;29;20035;-79
2023/09/27 10:31:58;;;;;;;5.20;3.10;;;;;;;31.05;20.99;101303.97;4803017;29;20196;-76
2023/09/27 10:34:27;;;;;;;3.97;3.15;;;;;;;30.49;21.30;101301.63;4814835;29;20081;-76
2023/09/27 10:36:55;;;;;;;5.60;3.40;;;;;;;29.53;22.15;101232.97;4832875;29;20046;-80
2023/09/27 10:39:25;;;;;;;6.30;3.17;;;;;;;29.39;22.08;101266.03;4818731;29;20042;-77
2023/09/27 10:41:53;;;;;;;6.75;3.80;;;;;;;29.28;22.84;101301.53;4822900;29;20562;-85
2023/09/27 10:44:43;;;;;;;6.00;3.03;;;;;;;28.89;23.19;101292.44;4826714;29;20463;-76
2023/09/27 10:47:12;;;;;;;4.78;2.88;;;;;;;28.53;23.51;101294.59;4811717;29;20089;-77
2023/09/27 10:49:38;;;;;;;4.38;2.90;;;;;;;27.93;23.96;101262.41;4820172;29;20081;-76
2023/09/27 10:52:18;;;;;;;6.60;3.58;;;;;;;27.76;24.79;101286.63;4821203;29;20414;-75
2023/09/27 10:54:45;;;;;;;5.97;2.83;;;;;;;27.13;24.86;101233.13;4823793;29;20086;-79
2023/09/27 10:57:13;;;;;;;8.00;3.10;;;;;;;27.27;25.28;101288.44;4830735;29;20061;-78
2023/09/27 10:59:43;;;;;;;6.18;3.47;;;;;;;26.19;25.61;101168.78;4813963;29;20248;-80
2023/09/27 11:02:30;;;;;;;5.03;3.08;;;;;;;26.57;26.33;101286.81;4816033;29;20038;-75
2023/09/27 11:04:57;;;;;;;4.85;3.10;;;;;;;26.45;26.53;101300.81;4826282;29;20066;-78
2023/09/27 11:07:41;;;;;;;5.47;3.75;;;;;;;25.86;26.83;101282.41;4828983;29;20042;-77
2023/09/27 11:10:11;;;;;;;11.45;5.75;;;;;;;25.69;27.26;101259.28;4826382;29;20068;-77
2023/09/27 11:12:37;;;;;;;5.95;4.05;;;;;;;25.33;27.49;101205.03;4811293;29;20118;-75
2023/09/27 11:15:04;;;;;;;5.57;3.30;;;;;;;25.54;27.68;101275.06;4812098;29;20143;-74
2023/09/27 11:17:31;;;;;;;5.55;3.80;;;;;;;25.32;28.09;101277.88;4811761;29;20042;-72
2023/09/27 11:20:15;;;;;;;10.27;3.92;;;;;;;25.18;28.52;101289.19;4826241;29;20057;-70
2023/09/27 11:22:41;;;;;;;4.80;3.60;;;;;;;24.97;28.54;101275.06;4810587;29;20046;-71
2023/09/27 11:25:30;;;;;;;4.78;3.05;;;;;;;24.67;28.86;101249.75;4820818;29;20046;-71
2023/09/27 11:27:56;;;;;;;8.43;3.72;;;;;;;24.66;29.10;101279.94;4796882;29;20042;-72